sensor_id;sensor_type;location;lat;lon;timestamp;P1;durP1;ratioP1;P2;durP2;ratioP2
15082;SDS011;7640;53.116;6.878;2022-07-12T00:00:08;10.53;;;7.40;;
15082;SDS011;7640;53.116;6.878;2022-07-12T00:02:37;9.50;;;6.93;;
15082;SDS011;7640;53.116;6.878;2022-07-12T00:05:07;8.70;;;5.97;;
15082;SDS011;7640;53.116;6.878;2022-07-12T00:07:35;7.77;;;6.07;;
15082;SDS011;7640;53.116;6.878;2022-07-12T00:10:04;6.80;;;6.00;;
15082;SDS011;7640;53.116;6.878;2022-07-12T00:12:32;7.87;;;7.03;;
15082;SDS011;7640;53.116;6.878;2022-07-12T00:15:01;9.87;;;8.20;;
15082;SDS011;7640;53.116;6.878;2022-07-12T00:17:30;12.53;;;8.33;;
15082;SDS011;7640;53.116;6.878;2022-07-12T00:19:58;13.03;;;7.20;;
15082;SDS011;7640;53.116;6.878;2022-07-12T00:22:27;7.40;;;6.30;;
15082;SDS011;7640;53.116;6.878;2022-07-12T00:24:55;9.30;;;6.67;;
15082;SDS011;7640;53.116;6.878;2022-07-12T00:27:24;7.63;;;6.83;;
15082;SDS011;7640;53.116;6.878;2022-07-12T00:29:52;8.37;;;7.57;;
15082;SDS011;7640;53.116;6.878;2022-07-12T00:32:20;8.47;;;7.53;;
15082;SDS011;7640;53.116;6.878;2022-07-12T00:34:48;7.77;;;6.10;;
15082;SDS011;7640;53.116;6.878;2022-07-12T00:37:16;6.83;;;5.60;;
15082;SDS011;7640;53.116;6.878;2022-07-12T00:39:46;5.63;;;5.10;;
15082;SDS011;7640;53.116;6.878;2022-07-12T00:42:14;5.40;;;4.90;;
15082;SDS011;7640;53.116;6.878;2022-07-12T00:44:42;6.30;;;5.10;;
15082;SDS011;7640;53.116;6.878;2022-07-12T00:47:16;7.27;;;5.50;;
15082;SDS011;7640;53.116;6.878;2022-07-12T00:49:57;5.97;;;5.33;;
15082;SDS011;7640;53.116;6.878;2022-07-12T00:52:26;6.23;;;5.20;;
15082;SDS011;7640;53.116;6.878;2022-07-12T00:54:55;7.30;;;5.70;;
15082;SDS011;7640;53.116;6.878;2022-07-12T00:57:24;6.23;;;4.90;;
15082;SDS011;7640;53.116;6.878;2022-07-12T00:59:52;7.20;;;5.50;;
15082;SDS011;7640;53.116;6.878;2022-07-12T01:02:20;5.90;;;5.20;;
15082;SDS011;7640;53.116;6.878;2022-07-12T01:04:49;6.60;;;5.20;;
15082;SDS011;7640;53.116;6.878;2022-07-12T01:07:19;7.27;;;5.43;;
15082;SDS011;7640;53.116;6.878;2022-07-12T01:09:47;7.00;;;5.27;;
15082;SDS011;7640;53.116;6.878;2022-07-12T01:12:16;6.97;;;5.23;;
15082;SDS011;7640;53.116;6.878;2022-07-12T01:14:45;6.20;;;5.40;;
15082;SDS011;7640;53.116;6.878;2022-07-12T01:17:14;6.23;;;5.63;;
15082;SDS011;7640;53.116;6.878;2022-07-12T01:19:44;7.23;;;5.87;;
15082;SDS011;7640;53.116;6.878;2022-07-12T01:22:13;7.60;;;6.07;;
15082;SDS011;7640;53.116;6.878;2022-07-12T01:24:44;6.23;;;5.60;;
15082;SDS011;7640;53.116;6.878;2022-07-12T01:27:13;6.57;;;5.40;;
15082;SDS011;7640;53.116;6.878;2022-07-12T01:29:41;6.43;;;5.73;;
15082;SDS011;7640;53.116;6.878;2022-07-12T01:32:10;6.83;;;6.13;;
15082;SDS011;7640;53.116;6.878;2022-07-12T01:34:55;7.07;;;6.03;;
15082;SDS011;7640;53.116;6.878;2022-07-12T01:37:25;7.83;;;5.53;;
15082;SDS011;7640;53.116;6.878;2022-07-12T01:39:59;6.90;;;6.10;;
15082;SDS011;7640;53.116;6.878;2022-07-12T01:42:30;7.00;;;6.17;;
15082;SDS011;7640;53.116;6.878;2022-07-12T01:44:58;7.03;;;6.00;;
15082;SDS011;7640;53.116;6.878;2022-07-12T01:47:28;8.07;;;5.90;;
15082;SDS011;7640;53.116;6.878;2022-07-12T01:49:58;7.20;;;5.77;;
15082;SDS011;7640;53.116;6.878;2022-07-12T01:52:26;7.10;;;5.87;;
15082;SDS011;7640;53.116;6.878;2022-07-12T01:54:55;8.10;;;6.00;;
15082;SDS011;7640;53.116;6.878;2022-07-12T01:57:26;7.57;;;6.20;;
15082;SDS011;7640;53.116;6.878;2022-07-12T01:59:55;8.37;;;6.27;;
15082;SDS011;7640;53.116;6.878;2022-07-12T02:02:24;7.00;;;5.77;;
15082;SDS011;7640;53.116;6.878;2022-07-12T02:04:53;6.60;;;5.90;;
15082;SDS011;7640;53.116;6.878;2022-07-12T02:07:22;7.57;;;6.17;;
15082;SDS011;7640;53.116;6.878;2022-07-12T02:09:51;7.77;;;6.47;;
15082;SDS011;7640;53.116;6.878;2022-07-12T02:12:20;7.80;;;6.70;;
15082;SDS011;7640;53.116;6.878;2022-07-12T02:14:50;6.70;;;6.00;;
15082;SDS011;7640;53.116;6.878;2022-07-12T02:17:18;7.63;;;6.47;;
15082;SDS011;7640;53.116;6.878;2022-07-12T02:19:47;7.43;;;6.53;;
15082;SDS011;7640;53.116;6.878;2022-07-12T02:22:15;6.90;;;5.60;;
15082;SDS011;7640;53.116;6.878;2022-07-12T02:24:43;6.47;;;5.60;;
15082;SDS011;7640;53.116;6.878;2022-07-12T02:27:11;6.90;;;5.90;;
15082;SDS011;7640;53.116;6.878;2022-07-12T02:29:39;6.07;;;5.40;;
15082;SDS011;7640;53.116;6.878;2022-07-12T02:32:10;6.47;;;5.30;;
15082;SDS011;7640;53.116;6.878;2022-07-12T02:34:38;8.13;;;5.50;;
15082;SDS011;7640;53.116;6.878;2022-07-12T02:37:06;7.17;;;5.87;;
15082;SDS011;7640;53.116;6.878;2022-07-12T02:39:34;6.17;;;5.57;;
15082;SDS011;7640;53.116;6.878;2022-07-12T02:42:03;6.20;;;5.60;;
15082;SDS011;7640;53.116;6.878;2022-07-12T02:44:32;6.30;;;5.67;;
15082;SDS011;7640;53.116;6.878;2022-07-12T02:47:00;7.33;;;5.70;;
15082;SDS011;7640;53.116;6.878;2022-07-12T02:49:30;5.97;;;5.30;;
15082;SDS011;7640;53.116;6.878;2022-07-12T02:51:58;6.07;;;5.33;;
15082;SDS011;7640;53.116;6.878;2022-07-12T02:54:26;7.90;;;6.83;;
15082;SDS011;7640;53.116;6.878;2022-07-12T02:56:54;7.90;;;7.10;;
15082;SDS011;7640;53.116;6.878;2022-07-12T02:59:23;8.13;;;6.50;;
15082;SDS011;7640;53.116;6.878;2022-07-12T03:01:51;7.33;;;6.40;;
15082;SDS011;7640;53.116;6.878;2022-07-12T03:04:19;9.23;;;7.37;;
15082;SDS011;7640;53.116;6.878;2022-07-12T03:06:49;7.80;;;6.87;;
15082;SDS011;7640;53.116;6.878;2022-07-12T03:09:17;8.13;;;6.70;;
15082;SDS011;7640;53.116;6.878;2022-07-12T03:11:45;8.97;;;7.40;;
15082;SDS011;7640;53.116;6.878;2022-07-12T03:14:13;7.83;;;6.63;;
15082;SDS011;7640;53.116;6.878;2022-07-12T03:16:41;9.03;;;6.57;;
15082;SDS011;7640;53.116;6.878;2022-07-12T03:19:10;8.17;;;6.97;;
15082;SDS011;7640;53.116;6.878;2022-07-12T03:21:38;10.07;;;7.47;;
15082;SDS011;7640;53.116;6.878;2022-07-12T03:24:07;8.83;;;7.17;;
15082;SDS011;7640;53.116;6.878;2022-07-12T03:26:36;8.33;;;7.47;;
15082;SDS011;7640;53.116;6.878;2022-07-12T03:29:04;9.60;;;8.03;;
15082;SDS011;7640;53.116;6.878;2022-07-12T03:31:32;10.33;;;7.87;;
15082;SDS011;7640;53.116;6.878;2022-07-12T03:34:00;8.50;;;7.60;;
15082;SDS011;7640;53.116;6.878;2022-07-12T03:36:29;9.60;;;8.33;;
15082;SDS011;7640;53.116;6.878;2022-07-12T03:38:57;8.60;;;7.70;;
15082;SDS011;7640;53.116;6.878;2022-07-12T03:41:27;10.53;;;9.00;;
15082;SDS011;7640;53.116;6.878;2022-07-12T03:43:55;11.60;;;8.83;;
15082;SDS011;7640;53.116;6.878;2022-07-12T03:46:23;10.77;;;8.10;;
15082;SDS011;7640;53.116;6.878;2022-07-12T03:48:52;9.80;;;8.10;;
15082;SDS011;7640;53.116;6.878;2022-07-12T03:51:20;10.23;;;9.13;;
15082;SDS011;7640;53.116;6.878;2022-07-12T03:53:48;10.97;;;8.47;;
15082;SDS011;7640;53.116;6.878;2022-07-12T03:56:16;8.87;;;7.97;;
15082;SDS011;7640;53.116;6.878;2022-07-12T03:58:59;8.60;;;7.60;;
15082;SDS011;7640;53.116;6.878;2022-07-12T04:01:28;11.80;;;8.80;;
15082;SDS011;7640;53.116;6.878;2022-07-12T04:03:56;11.17;;;7.97;;
15082;SDS011;7640;53.116;6.878;2022-07-12T04:06:25;10.17;;;8.17;;
15082;SDS011;7640;53.116;6.878;2022-07-12T04:08:53;8.97;;;7.80;;
15082;SDS011;7640;53.116;6.878;2022-07-12T04:11:21;11.73;;;8.17;;
15082;SDS011;7640;53.116;6.878;2022-07-12T04:13:50;11.13;;;8.97;;
15082;SDS011;7640;53.116;6.878;2022-07-12T04:16:19;10.03;;;8.47;;
15082;SDS011;7640;53.116;6.878;2022-07-12T04:18:47;13.33;;;9.60;;
15082;SDS011;7640;53.116;6.878;2022-07-12T04:21:16;9.80;;;8.43;;
15082;SDS011;7640;53.116;6.878;2022-07-12T04:23:44;9.90;;;8.27;;
15082;SDS011;7640;53.116;6.878;2022-07-12T04:26:12;11.40;;;8.83;;
15082;SDS011;7640;53.116;6.878;2022-07-12T04:28:40;10.57;;;8.87;;
15082;SDS011;7640;53.116;6.878;2022-07-12T04:31:08;11.37;;;9.30;;
15082;SDS011;7640;53.116;6.878;2022-07-12T04:33:38;11.77;;;9.60;;
15082;SDS011;7640;53.116;6.878;2022-07-12T04:36:06;10.97;;;9.70;;
15082;SDS011;7640;53.116;6.878;2022-07-12T04:38:34;10.97;;;9.73;;
15082;SDS011;7640;53.116;6.878;2022-07-12T04:41:03;9.90;;;8.80;;
15082;SDS011;7640;53.116;6.878;2022-07-12T04:43:31;11.00;;;9.20;;
15082;SDS011;7640;53.116;6.878;2022-07-12T04:46:04;10.93;;;8.27;;
15082;SDS011;7640;53.116;6.878;2022-07-12T04:48:33;11.13;;;8.83;;
15082;SDS011;7640;53.116;6.878;2022-07-12T04:51:03;9.07;;;8.07;;
15082;SDS011;7640;53.116;6.878;2022-07-12T04:53:31;8.90;;;7.77;;
15082;SDS011;7640;53.116;6.878;2022-07-12T04:56:00;10.90;;;8.13;;
15082;SDS011;7640;53.116;6.878;2022-07-12T04:58:28;11.37;;;7.47;;
15082;SDS011;7640;53.116;6.878;2022-07-12T05:00:56;8.53;;;7.50;;
15082;SDS011;7640;53.116;6.878;2022-07-12T05:03:24;10.10;;;7.90;;
15082;SDS011;7640;53.116;6.878;2022-07-12T05:05:53;8.27;;;7.47;;
15082;SDS011;7640;53.116;6.878;2022-07-12T05:08:23;9.00;;;7.77;;
15082;SDS011;7640;53.116;6.878;2022-07-12T05:10:51;8.83;;;7.63;;
15082;SDS011;7640;53.116;6.878;2022-07-12T05:13:19;8.87;;;7.47;;
15082;SDS011;7640;53.116;6.878;2022-07-12T05:15:48;9.27;;;7.63;;
15082;SDS011;7640;53.116;6.878;2022-07-12T05:18:16;10.40;;;8.20;;
15082;SDS011;7640;53.116;6.878;2022-07-12T05:20:44;9.73;;;8.07;;
15082;SDS011;7640;53.116;6.878;2022-07-12T05:23:17;9.47;;;7.70;;
15082;SDS011;7640;53.116;6.878;2022-07-12T05:25:47;10.73;;;8.00;;
15082;SDS011;7640;53.116;6.878;2022-07-12T05:28:15;9.87;;;8.20;;
15082;SDS011;7640;53.116;6.878;2022-07-12T05:30:43;9.47;;;8.00;;
15082;SDS011;7640;53.116;6.878;2022-07-12T05:33:12;9.20;;;7.40;;
15082;SDS011;7640;53.116;6.878;2022-07-12T05:35:40;11.17;;;8.23;;
15082;SDS011;7640;53.116;6.878;2022-07-12T05:38:08;9.57;;;8.07;;
15082;SDS011;7640;53.116;6.878;2022-07-12T05:40:36;11.83;;;8.63;;
15082;SDS011;7640;53.116;6.878;2022-07-12T05:43:06;10.83;;;8.83;;
15082;SDS011;7640;53.116;6.878;2022-07-12T05:45:34;9.50;;;8.13;;
15082;SDS011;7640;53.116;6.878;2022-07-12T05:48:02;10.47;;;8.43;;
15082;SDS011;7640;53.116;6.878;2022-07-12T05:50:32;11.50;;;8.80;;
15082;SDS011;7640;53.116;6.878;2022-07-12T05:53:00;10.13;;;8.80;;
15082;SDS011;7640;53.116;6.878;2022-07-12T05:55:46;12.63;;;8.83;;
15082;SDS011;7640;53.116;6.878;2022-07-12T05:58:15;10.10;;;8.20;;
15082;SDS011;7640;53.116;6.878;2022-07-12T06:00:45;10.00;;;8.10;;
15082;SDS011;7640;53.116;6.878;2022-07-12T06:03:13;11.03;;;8.43;;
15082;SDS011;7640;53.116;6.878;2022-07-12T06:05:42;10.67;;;8.80;;
15082;SDS011;7640;53.116;6.878;2022-07-12T06:08:11;10.20;;;9.10;;
15082;SDS011;7640;53.116;6.878;2022-07-12T06:10:39;12.77;;;9.33;;
15082;SDS011;7640;53.116;6.878;2022-07-12T06:13:07;11.37;;;8.50;;
15082;SDS011;7640;53.116;6.878;2022-07-12T06:15:38;12.43;;;8.80;;
15082;SDS011;7640;53.116;6.878;2022-07-12T06:18:06;9.97;;;8.63;;
15082;SDS011;7640;53.116;6.878;2022-07-12T06:20:34;10.30;;;7.80;;
15082;SDS011;7640;53.116;6.878;2022-07-12T06:23:02;9.37;;;8.37;;
15082;SDS011;7640;53.116;6.878;2022-07-12T06:25:30;10.77;;;8.90;;
15082;SDS011;7640;53.116;6.878;2022-07-12T06:28:09;9.60;;;8.57;;
15082;SDS011;7640;53.116;6.878;2022-07-12T06:30:38;11.00;;;8.57;;
15082;SDS011;7640;53.116;6.878;2022-07-12T06:33:07;10.83;;;9.17;;
15082;SDS011;7640;53.116;6.878;2022-07-12T06:35:35;9.73;;;8.73;;
15082;SDS011;7640;53.116;6.878;2022-07-12T06:38:03;9.77;;;8.77;;
15082;SDS011;7640;53.116;6.878;2022-07-12T06:40:32;11.33;;;9.53;;
15082;SDS011;7640;53.116;6.878;2022-07-12T06:43:00;10.33;;;9.20;;
15082;SDS011;7640;53.116;6.878;2022-07-12T06:45:28;9.50;;;8.33;;
15082;SDS011;7640;53.116;6.878;2022-07-12T06:47:57;10.63;;;9.53;;
15082;SDS011;7640;53.116;6.878;2022-07-12T06:50:26;11.27;;;8.47;;
15082;SDS011;7640;53.116;6.878;2022-07-12T06:52:54;10.17;;;9.00;;
15082;SDS011;7640;53.116;6.878;2022-07-12T06:55:22;11.53;;;9.27;;
15082;SDS011;7640;53.116;6.878;2022-07-12T06:57:51;10.27;;;9.17;;
15082;SDS011;7640;53.116;6.878;2022-07-12T07:00:19;10.13;;;9.07;;
15082;SDS011;7640;53.116;6.878;2022-07-12T07:02:48;9.57;;;8.57;;
15082;SDS011;7640;53.116;6.878;2022-07-12T07:05:18;10.10;;;8.97;;
15082;SDS011;7640;53.116;6.878;2022-07-12T07:07:46;10.60;;;9.40;;
15082;SDS011;7640;53.116;6.878;2022-07-12T07:10:14;10.43;;;9.33;;
15082;SDS011;7640;53.116;6.878;2022-07-12T07:12:42;12.97;;;9.90;;
15082;SDS011;7640;53.116;6.878;2022-07-12T07:15:11;9.87;;;8.87;;
15082;SDS011;7640;53.116;6.878;2022-07-12T07:17:41;9.60;;;8.57;;
15082;SDS011;7640;53.116;6.878;2022-07-12T07:20:10;9.63;;;8.63;;
15082;SDS011;7640;53.116;6.878;2022-07-12T07:22:43;10.33;;;7.80;;
15082;SDS011;7640;53.116;6.878;2022-07-12T07:25:11;10.93;;;8.23;;
15082;SDS011;7640;53.116;6.878;2022-07-12T07:27:39;10.50;;;8.90;;
15082;SDS011;7640;53.116;6.878;2022-07-12T07:30:07;9.23;;;8.13;;
15082;SDS011;7640;53.116;6.878;2022-07-12T07:32:53;9.47;;;8.23;;
15082;SDS011;7640;53.116;6.878;2022-07-12T07:35:22;9.63;;;8.37;;
15082;SDS011;7640;53.116;6.878;2022-07-12T07:37:51;9.83;;;8.67;;
15082;SDS011;7640;53.116;6.878;2022-07-12T07:40:20;8.40;;;7.37;;
15082;SDS011;7640;53.116;6.878;2022-07-12T07:42:48;8.00;;;7.20;;
15082;SDS011;7640;53.116;6.878;2022-07-12T07:45:17;6.90;;;6.20;;
15082;SDS011;7640;53.116;6.878;2022-07-12T07:47:46;7.07;;;6.33;;
15082;SDS011;7640;53.116;6.878;2022-07-12T07:50:35;7.13;;;6.40;;
15082;SDS011;7640;53.116;6.878;2022-07-12T07:53:06;7.00;;;6.30;;
15082;SDS011;7640;53.116;6.878;2022-07-12T07:55:35;8.30;;;6.60;;
15082;SDS011;7640;53.116;6.878;2022-07-12T07:58:03;6.63;;;5.93;;
15082;SDS011;7640;53.116;6.878;2022-07-12T08:00:32;6.97;;;5.43;;
15082;SDS011;7640;53.116;6.878;2022-07-12T08:03:00;6.27;;;5.60;;
15082;SDS011;7640;53.116;6.878;2022-07-12T08:05:28;5.47;;;4.97;;
15082;SDS011;7640;53.116;6.878;2022-07-12T08:07:57;6.23;;;5.63;;
15082;SDS011;7640;53.116;6.878;2022-07-12T08:10:26;6.37;;;5.77;;
15082;SDS011;7640;53.116;6.878;2022-07-12T08:12:54;6.50;;;5.90;;
15082;SDS011;7640;53.116;6.878;2022-07-12T08:15:23;5.90;;;5.40;;
15082;SDS011;7640;53.116;6.878;2022-07-12T08:17:51;6.23;;;5.63;;
15082;SDS011;7640;53.116;6.878;2022-07-12T08:20:20;6.33;;;5.73;;
15082;SDS011;7640;53.116;6.878;2022-07-12T08:23:09;6.00;;;5.40;;
15082;SDS011;7640;53.116;6.878;2022-07-12T08:25:39;5.63;;;5.13;;
15082;SDS011;7640;53.116;6.878;2022-07-12T08:28:08;5.80;;;4.80;;
15082;SDS011;7640;53.116;6.878;2022-07-12T08:30:36;6.97;;;5.80;;
15082;SDS011;7640;53.116;6.878;2022-07-12T08:33:11;5.57;;;4.90;;
15082;SDS011;7640;53.116;6.878;2022-07-12T08:35:41;5.20;;;4.75;;
15082;SDS011;7640;53.116;6.878;2022-07-12T08:38:10;7.35;;;6.00;;
15082;SDS011;7640;53.116;6.878;2022-07-12T08:40:40;5.78;;;5.18;;
15082;SDS011;7640;53.116;6.878;2022-07-12T08:43:08;5.10;;;4.68;;
15082;SDS011;7640;53.116;6.878;2022-07-12T08:45:36;5.63;;;5.03;;
15082;SDS011;7640;53.116;6.878;2022-07-12T08:48:07;4.70;;;4.30;;
15082;SDS011;7640;53.116;6.878;2022-07-12T08:50:35;5.13;;;4.60;;
15082;SDS011;7640;53.116;6.878;2022-07-12T08:53:10;4.82;;;4.43;;
15082;SDS011;7640;53.116;6.878;2022-07-12T08:55:41;4.22;;;3.83;;
15082;SDS011;7640;53.116;6.878;2022-07-12T08:58:15;4.93;;;3.97;;
15082;SDS011;7640;53.116;6.878;2022-07-12T09:00:45;6.38;;;4.93;;
15082;SDS011;7640;53.116;6.878;2022-07-12T09:03:16;4.78;;;4.32;;
15082;SDS011;7640;53.116;6.878;2022-07-12T09:05:49;4.18;;;3.67;;
15082;SDS011;7640;53.116;6.878;2022-07-12T09:08:23;5.50;;;5.00;;
15082;SDS011;7640;53.116;6.878;2022-07-12T09:10:56;4.70;;;4.30;;
15082;SDS011;7640;53.116;6.878;2022-07-12T09:13:46;5.28;;;4.75;;
15082;SDS011;7640;53.116;6.878;2022-07-12T09:16:18;4.65;;;4.25;;
15082;SDS011;7640;53.116;6.878;2022-07-12T09:18:48;6.28;;;4.43;;
15082;SDS011;7640;53.116;6.878;2022-07-12T09:21:20;5.65;;;4.32;;
15082;SDS011;7640;53.116;6.878;2022-07-12T09:23:54;4.90;;;4.50;;
15082;SDS011;7640;53.116;6.878;2022-07-12T09:26:28;5.20;;;4.70;;
15082;SDS011;7640;53.116;6.878;2022-07-12T09:29:04;4.60;;;4.20;;
15082;SDS011;7640;53.116;6.878;2022-07-12T09:31:43;5.15;;;4.40;;
15082;SDS011;7640;53.116;6.878;2022-07-12T09:34:32;5.32;;;4.00;;
15082;SDS011;7640;53.116;6.878;2022-07-12T09:37:19;4.88;;;4.22;;
15082;SDS011;7640;53.116;6.878;2022-07-12T09:39:48;4.40;;;4.00;;
15082;SDS011;7640;53.116;6.878;2022-07-12T09:42:19;5.55;;;4.13;;
15082;SDS011;7640;53.116;6.878;2022-07-12T09:44:53;4.75;;;4.32;;
15082;SDS011;7640;53.116;6.878;2022-07-12T09:47:23;4.53;;;4.13;;
15082;SDS011;7640;53.116;6.878;2022-07-12T09:49:53;4.63;;;4.18;;
15082;SDS011;7640;53.116;6.878;2022-07-12T09:52:22;4.28;;;3.58;;
15082;SDS011;7640;53.116;6.878;2022-07-12T09:54:53;3.80;;;3.50;;
15082;SDS011;7640;53.116;6.878;2022-07-12T09:57:27;3.80;;;3.50;;
15082;SDS011;7640;53.116;6.878;2022-07-12T09:59:59;4.40;;;4.00;;
15082;SDS011;7640;53.116;6.878;2022-07-12T10:02:28;3.92;;;3.40;;
15082;SDS011;7640;53.116;6.878;2022-07-12T10:04:57;3.55;;;3.25;;
15082;SDS011;7640;53.116;6.878;2022-07-12T10:07:31;3.60;;;3.30;;
15082;SDS011;7640;53.116;6.878;2022-07-12T10:10:00;3.75;;;3.45;;
15082;SDS011;7640;53.116;6.878;2022-07-12T10:12:31;3.53;;;3.22;;
15082;SDS011;7640;53.116;6.878;2022-07-12T10:15:00;3.40;;;3.10;;
15082;SDS011;7640;53.116;6.878;2022-07-12T10:17:32;4.32;;;3.40;;
15082;SDS011;7640;53.116;6.878;2022-07-12T10:20:14;4.13;;;3.72;;
15082;SDS011;7640;53.116;6.878;2022-07-12T10:22:45;3.65;;;3.35;;
15082;SDS011;7640;53.116;6.878;2022-07-12T10:25:28;4.05;;;3.17;;
15082;SDS011;7640;53.116;6.878;2022-07-12T10:28:00;2.80;;;2.60;;
15082;SDS011;7640;53.116;6.878;2022-07-12T10:30:30;2.88;;;2.67;;
15082;SDS011;7640;53.116;6.878;2022-07-12T10:33:14;3.85;;;3.42;;
15082;SDS011;7640;53.116;6.878;2022-07-12T10:35:57;3.90;;;3.60;;
15082;SDS011;7640;53.116;6.878;2022-07-12T10:38:26;3.08;;;2.85;;
15082;SDS011;7640;53.116;6.878;2022-07-12T10:40:55;3.05;;;2.85;;
15082;SDS011;7640;53.116;6.878;2022-07-12T10:43:25;2.22;;;2.03;;
15082;SDS011;7640;53.116;6.878;2022-07-12T10:46:17;2.08;;;1.88;;
15082;SDS011;7640;53.116;6.878;2022-07-12T10:48:50;3.35;;;1.95;;
15082;SDS011;7640;53.116;6.878;2022-07-12T10:51:18;1.90;;;1.80;;
15082;SDS011;7640;53.116;6.878;2022-07-12T10:53:48;2.15;;;1.98;;
15082;SDS011;7640;53.116;6.878;2022-07-12T10:56:17;2.92;;;2.10;;
15082;SDS011;7640;53.116;6.878;2022-07-12T10:58:56;2.25;;;1.98;;
15082;SDS011;7640;53.116;6.878;2022-07-12T11:01:27;1.50;;;1.40;;
15082;SDS011;7640;53.116;6.878;2022-07-12T11:04:03;1.50;;;1.40;;
15082;SDS011;7640;53.116;6.878;2022-07-12T11:06:34;1.48;;;1.38;;
15082;SDS011;7640;53.116;6.878;2022-07-12T11:09:04;1.83;;;1.30;;
15082;SDS011;7640;53.116;6.878;2022-07-12T11:11:35;1.42;;;1.33;;
15082;SDS011;7640;53.116;6.878;2022-07-12T11:14:11;2.33;;;1.20;;
15082;SDS011;7640;53.116;6.878;2022-07-12T11:16:48;1.60;;;1.10;;
15082;SDS011;7640;53.116;6.878;2022-07-12T11:19:20;1.83;;;1.50;;
15082;SDS011;7640;53.116;6.878;2022-07-12T11:21:50;1.63;;;1.40;;
15082;SDS011;7640;53.116;6.878;2022-07-12T11:24:22;1.58;;;1.48;;
15082;SDS011;7640;53.116;6.878;2022-07-12T11:26:53;2.50;;;1.58;;
15082;SDS011;7640;53.116;6.878;2022-07-12T11:29:23;1.60;;;1.50;;
15082;SDS011;7640;53.116;6.878;2022-07-12T11:31:59;2.33;;;1.50;;
15082;SDS011;7640;53.116;6.878;2022-07-12T11:34:36;1.98;;;1.42;;
15082;SDS011;7640;53.116;6.878;2022-07-12T11:37:05;1.35;;;1.25;;
15082;SDS011;7640;53.116;6.878;2022-07-12T11:39:34;1.30;;;1.20;;
15082;SDS011;7640;53.116;6.878;2022-07-12T11:42:04;1.40;;;1.08;;
15082;SDS011;7640;53.116;6.878;2022-07-12T11:44:42;1.35;;;1.25;;
15082;SDS011;7640;53.116;6.878;2022-07-12T11:47:11;1.67;;;1.20;;
15082;SDS011;7640;53.116;6.878;2022-07-12T11:49:44;1.50;;;1.40;;
15082;SDS011;7640;53.116;6.878;2022-07-12T11:52:14;1.58;;;1.30;;
15082;SDS011;7640;53.116;6.878;2022-07-12T11:54:43;1.20;;;1.10;;
15082;SDS011;7640;53.116;6.878;2022-07-12T11:57:12;1.30;;;1.20;;
15082;SDS011;7640;53.116;6.878;2022-07-12T11:59:42;1.33;;;1.20;;
15082;SDS011;7640;53.116;6.878;2022-07-12T12:02:11;1.17;;;1.08;;
15082;SDS011;7640;53.116;6.878;2022-07-12T12:04:43;1.95;;;1.38;;
15082;SDS011;7640;53.116;6.878;2022-07-12T12:07:13;1.02;;;1.02;;
15082;SDS011;7640;53.116;6.878;2022-07-12T12:12:35;2.50;;;1.10;;
15082;SDS011;7640;53.116;6.878;2022-07-12T12:15:07;1.27;;;1.17;;
15082;SDS011;7640;53.116;6.878;2022-07-12T12:17:42;1.27;;;1.10;;
15082;SDS011;7640;53.116;6.878;2022-07-12T12:20:14;2.30;;;1.17;;
15082;SDS011;7640;53.116;6.878;2022-07-12T12:22:44;1.83;;;1.00;;
15082;SDS011;7640;53.116;6.878;2022-07-12T12:25:16;1.05;;;0.80;;
15082;SDS011;7640;53.116;6.878;2022-07-12T12:27:45;1.40;;;0.80;;
15082;SDS011;7640;53.116;6.878;2022-07-12T12:30:48;1.00;;;0.90;;
15082;SDS011;7640;53.116;6.878;2022-07-12T12:33:33;1.20;;;1.10;;
15082;SDS011;7640;53.116;6.878;2022-07-12T12:36:13;1.27;;;1.00;;
15082;SDS011;7640;53.116;6.878;2022-07-12T12:38:47;1.77;;;0.85;;
15082;SDS011;7640;53.116;6.878;2022-07-12T12:41:17;1.52;;;1.10;;
15082;SDS011;7640;53.116;6.878;2022-07-12T12:43:55;1.85;;;1.00;;
15082;SDS011;7640;53.116;6.878;2022-07-12T12:46:46;1.33;;;1.00;;
15082;SDS011;7640;53.116;6.878;2022-07-12T12:49:20;0.80;;;0.80;;
15082;SDS011;7640;53.116;6.878;2022-07-12T12:52:13;1.40;;;1.30;;
15082;SDS011;7640;53.116;6.878;2022-07-12T12:54:41;1.52;;;1.10;;
15082;SDS011;7640;53.116;6.878;2022-07-12T12:57:11;1.63;;;1.10;;
15082;SDS011;7640;53.116;6.878;2022-07-12T12:59:39;0.93;;;0.80;;
15082;SDS011;7640;53.116;6.878;2022-07-12T13:02:09;0.90;;;0.90;;
15082;SDS011;7640;53.116;6.878;2022-07-12T13:04:37;0.90;;;0.80;;
15082;SDS011;7640;53.116;6.878;2022-07-12T13:07:06;1.13;;;0.93;;
15082;SDS011;7640;53.116;6.878;2022-07-12T13:09:38;1.00;;;0.90;;
15082;SDS011;7640;53.116;6.878;2022-07-12T13:12:07;0.73;;;0.73;;
15082;SDS011;7640;53.116;6.878;2022-07-12T13:14:35;1.08;;;0.95;;
15082;SDS011;7640;53.116;6.878;2022-07-12T13:17:03;1.50;;;1.17;;
15082;SDS011;7640;53.116;6.878;2022-07-12T13:19:33;0.80;;;0.80;;
15082;SDS011;7640;53.116;6.878;2022-07-12T13:22:03;1.10;;;1.00;;
15082;SDS011;7640;53.116;6.878;2022-07-12T13:24:32;0.70;;;0.70;;
15082;SDS011;7640;53.116;6.878;2022-07-12T13:27:00;0.68;;;0.52;;
15082;SDS011;7640;53.116;6.878;2022-07-12T13:29:28;1.65;;;0.60;;
15082;SDS011;7640;53.116;6.878;2022-07-12T13:31:56;0.70;;;0.70;;
15082;SDS011;7640;53.116;6.878;2022-07-12T13:34:25;0.85;;;0.60;;
15082;SDS011;7640;53.116;6.878;2022-07-12T13:36:54;0.60;;;0.60;;
15082;SDS011;7640;53.116;6.878;2022-07-12T13:39:23;0.80;;;0.80;;
15082;SDS011;7640;53.116;6.878;2022-07-12T13:42:09;1.08;;;0.80;;
15082;SDS011;7640;53.116;6.878;2022-07-12T13:44:37;1.40;;;1.00;;
15082;SDS011;7640;53.116;6.878;2022-07-12T13:47:06;1.77;;;0.88;;
15082;SDS011;7640;53.116;6.878;2022-07-12T13:49:34;0.50;;;0.50;;
15082;SDS011;7640;53.116;6.878;2022-07-12T13:52:04;0.80;;;0.68;;
15082;SDS011;7640;53.116;6.878;2022-07-12T13:54:33;1.58;;;0.70;;
15082;SDS011;7640;53.116;6.878;2022-07-12T13:57:02;0.75;;;0.75;;
15082;SDS011;7640;53.116;6.878;2022-07-12T13:59:31;0.73;;;0.70;;
15082;SDS011;7640;53.116;6.878;2022-07-12T14:01:59;1.13;;;0.80;;
15082;SDS011;7640;53.116;6.878;2022-07-12T14:04:28;0.80;;;0.80;;
15082;SDS011;7640;53.116;6.878;2022-07-12T14:06:56;1.15;;;0.70;;
15082;SDS011;7640;53.116;6.878;2022-07-12T14:09:27;0.95;;;0.80;;
15082;SDS011;7640;53.116;6.878;2022-07-12T14:11:55;2.15;;;1.50;;
15082;SDS011;7640;53.116;6.878;2022-07-12T14:14:24;1.65;;;0.82;;
15082;SDS011;7640;53.116;6.878;2022-07-12T14:17:06;1.20;;;1.00;;
15082;SDS011;7640;53.116;6.878;2022-07-12T14:19:34;1.50;;;0.88;;
15082;SDS011;7640;53.116;6.878;2022-07-12T14:22:03;2.50;;;0.93;;
15082;SDS011;7640;53.116;6.878;2022-07-12T14:24:33;1.75;;;1.00;;
15082;SDS011;7640;53.116;6.878;2022-07-12T14:27:01;1.10;;;1.05;;
15082;SDS011;7640;53.116;6.878;2022-07-12T14:29:30;1.63;;;1.00;;
15082;SDS011;7640;53.116;6.878;2022-07-12T14:31:58;1.10;;;1.00;;
15082;SDS011;7640;53.116;6.878;2022-07-12T14:34:27;1.20;;;0.80;;
15082;SDS011;7640;53.116;6.878;2022-07-12T14:36:55;1.38;;;1.10;;
15082;SDS011;7640;53.116;6.878;2022-07-12T14:39:24;1.13;;;1.02;;
15082;SDS011;7640;53.116;6.878;2022-07-12T14:41:53;1.88;;;1.77;;
15082;SDS011;7640;53.116;6.878;2022-07-12T14:44:22;1.77;;;1.17;;
15082;SDS011;7640;53.116;6.878;2022-07-12T14:46:51;1.80;;;1.10;;
15082;SDS011;7640;53.116;6.878;2022-07-12T14:49:20;2.05;;;1.20;;
15082;SDS011;7640;53.116;6.878;2022-07-12T14:51:48;3.83;;;1.20;;
15082;SDS011;7640;53.116;6.878;2022-07-12T14:54:17;0.93;;;0.93;;
15082;SDS011;7640;53.116;6.878;2022-07-12T14:56:45;0.90;;;0.80;;
15082;SDS011;7640;53.116;6.878;2022-07-12T14:59:20;4.53;;;1.10;;
15082;SDS011;7640;53.116;6.878;2022-07-12T15:01:49;1.48;;;1.30;;
15082;SDS011;7640;53.116;6.878;2022-07-12T15:04:18;0.73;;;0.70;;
15082;SDS011;7640;53.116;6.878;2022-07-12T15:06:46;1.73;;;1.08;;
15082;SDS011;7640;53.116;6.878;2022-07-12T15:09:14;1.05;;;0.95;;
15082;SDS011;7640;53.116;6.878;2022-07-12T15:11:42;0.95;;;0.85;;
15082;SDS011;7640;53.116;6.878;2022-07-12T15:14:11;1.38;;;0.93;;
15082;SDS011;7640;53.116;6.878;2022-07-12T15:16:40;0.98;;;0.90;;
15082;SDS011;7640;53.116;6.878;2022-07-12T15:19:09;1.00;;;0.80;;